Time;durP1;ratioP1;P1;durP2;ratioP2;P2;SDS_P1;SDS_P2;PMS_P1;PMS_P2;Temp;Humidity;BMP_temperature;BMP_pressure;BME280_temperature;BME280_humidity;BME280_pressure;Samples;Min_cycle;Max_cycle;Signal;HPM_P1;HPM_P2
2022/03/16 00:00:03;;;;;;;;;22.00;21.00;;;;;-146.03;100.00;60875.16;5006821;28;45382;-78
2022/03/16 00:02:29;;;;;;;;;26.00;19.00;;;;;-146.03;100.00;60875.16;5011312;28;45556;-78
2022/03/16 00:04:55;;;;;;;;;18.25;17.00;;;;;-146.03;100.00;60875.16;5013150;28;45380;-78
2022/03/16 00:07:22;;;;;;;;;20.50;20.00;;;;;-146.03;100.00;60875.16;5007264;28;45824;-77
2022/03/16 00:09:48;;;;;;;;;22.00;20.50;;;;;-146.03;100.00;60875.16;5011334;28;45372;-78
2022/03/16 00:12:15;;;;;;;;;24.50;21.25;;;;;-146.03;100.00;60875.16;5011576;28;45348;-78
2022/03/16 00:14:41;;;;;;;;;20.50;20.50;;;;;-146.03;100.00;60875.16;5011075;28;45390;-77
2022/03/16 00:17:07;;;;;;;;;18.75;18.75;;;;;-146.03;100.00;60875.16;5009784;28;45422;-77
2022/03/16 00:19:32;;;;;;;;;20.75;18.50;;;;;-146.03;100.00;60875.16;5014708;28;45471;-78
2022/03/16 00:21:59;;;;;;;;;20.50;19.25;;;;;-146.03;100.00;60875.16;5012477;28;45431;-78
2022/03/16 00:24:25;;;;;;;;;16.25;15.00;;;;;-146.03;100.00;60875.16;4994960;28;45677;-78
2022/03/16 00:26:50;;;;;;;;;18.75;16.00;;;;;-146.03;100.00;60875.16;5008786;28;45568;-79
2022/03/16 00:29:16;;;;;;;;;15.75;15.75;;;;;-146.03;100.00;60875.16;4995625;28;45418;-78
2022/03/16 00:31:41;;;;;;;;;22.00;20.25;;;;;-146.03;100.00;60875.16;5015223;28;45348;-78
2022/03/16 00:34:06;;;;;;;;;17.25;16.00;;;;;-146.03;100.00;60875.16;5014001;28;45429;-78
2022/03/16 00:36:32;;;;;;;;;18.75;17.75;;;;;-146.03;100.00;60875.16;5014288;28;45489;-77
2022/03/16 00:38:57;;;;;;;;;17.75;16.00;;;;;-146.03;100.00;60875.16;5009524;28;45451;-78
2022/03/16 00:41:22;;;;;;;;;20.25;18.25;;;;;-146.03;100.00;60875.16;5008229;28;45509;-78
2022/03/16 00:43:48;;;;;;;;;18.50;17.75;;;;;-146.03;100.00;60875.16;5007383;28;45514;-77
2022/03/16 00:46:13;;;;;;;;;20.50;18.00;;;;;-146.03;100.00;60875.16;5015729;28;46057;-78
2022/03/16 00:48:39;;;;;;;;;19.75;19.75;;;;;-146.03;100.00;60875.16;5013867;28;45431;-78
2022/03/16 00:51:05;;;;;;;;;21.00;18.75;;;;;-146.03;100.00;60875.16;5011129;28;46532;-77
2022/03/16 00:53:33;;;;;;;;;14.75;13.25;;;;;-146.03;100.00;60875.16;5009844;28;45288;-78
2022/03/16 00:55:59;;;;;;;;;18.00;16.75;;;;;-146.03;100.00;60875.16;5010213;28;45450;-78
2022/03/16 00:58:24;;;;;;;;;15.75;15.75;;;;;-146.03;100.00;60875.16;5010783;28;45382;-78
2022/03/16 01:00:50;;;;;;;;;18.50;16.00;;;;;-146.03;100.00;60875.16;5006623;28;45458;-78
2022/03/16 01:03:16;;;;;;;;;14.50;14.25;;;;;-146.03;100.00;60875.16;5011959;28;45640;-77
2022/03/16 01:05:41;;;;;;;;;16.25;16.25;;;;;-146.03;100.00;60875.16;5008251;28;48081;-77
2022/03/16 01:08:07;;;;;;;;;14.25;14.00;;;;;-146.03;100.00;60875.16;5012276;28;45439;-78
2022/03/16 01:10:32;;;;;;;;;14.25;13.75;;;;;-146.03;100.00;60875.16;5009375;28;45433;-78
2022/03/16 01:12:57;;;;;;;;;15.75;15.00;;;;;-146.03;100.00;60875.16;5008272;28;45522;-77
2022/03/16 01:15:23;;;;;;;;;16.25;16.00;;;;;-146.03;100.00;60875.16;5012725;28;45485;-78
2022/03/16 01:17:50;;;;;;;;;16.00;14.75;;;;;-146.03;100.00;60875.16;5007789;28;45422;-78
2022/03/16 01:20:16;;;;;;;;;15.50;14.00;;;;;-146.03;100.00;60875.16;5007443;28;45461;-77
2022/03/16 01:22:42;;;;;;;;;14.25;13.25;;;;;-146.03;100.00;60875.16;5012007;28;45522;-77
2022/03/16 01:25:07;;;;;;;;;17.50;17.50;;;;;-146.03;100.00;60875.16;5007717;28;45489;-79
2022/03/16 01:27:33;;;;;;;;;13.25;11.00;;;;;-146.03;100.00;60875.16;5009616;28;45405;-79
2022/03/16 01:29:58;;;;;;;;;17.00;16.00;;;;;-146.03;100.00;60875.16;5009683;28;45426;-79
2022/03/16 01:32:23;;;;;;;;;15.00;13.50;;;;;-146.03;100.00;60875.16;5013067;28;45505;-79
2022/03/16 01:34:49;;;;;;;;;16.00;15.75;;;;;-146.03;100.00;60875.16;5011528;28;45928;-79
2022/03/16 01:37:14;;;;;;;;;12.75;12.75;;;;;-146.03;100.00;60875.16;5010134;28;45446;-79
2022/03/16 01:39:39;;;;;;;;;13.75;12.50;;;;;-146.03;100.00;60875.16;5008335;28;45379;-78
2022/03/16 01:42:05;;;;;;;;;17.75;14.50;;;;;-146.03;100.00;60875.16;5008199;28;45361;-79
2022/03/16 01:44:51;;;;;;;;;14.75;14.25;;;;;-146.03;100.00;60875.16;4991332;28;46385;-78
2022/03/16 01:47:19;;;;;;;;;18.00;15.50;;;;;-146.03;100.00;60875.16;5010888;28;45579;-78
2022/03/16 01:49:45;;;;;;;;;11.50;10.00;;;;;-146.03;100.00;60875.16;5012888;28;45449;-78
2022/03/16 01:52:13;;;;;;;;;17.50;15.50;;;;;-146.03;100.00;60875.16;5007400;28;45561;-78
2022/03/16 01:54:40;;;;;;;;;16.25;14.75;;;;;-146.03;100.00;60875.16;5010312;28;46416;-77
2022/03/16 01:57:07;;;;;;;;;22.50;16.75;;;;;-146.03;100.00;60875.16;5011905;28;45554;-76
2022/03/16 01:59:33;;;;;;;;;16.50;15.25;;;;;-146.03;100.00;60875.16;5010076;28;45561;-78
2022/03/16 02:01:58;;;;;;;;;15.00;12.50;;;;;-146.03;100.00;60875.16;5014131;28;45489;-78
2022/03/16 02:04:24;;;;;;;;;16.75;16.00;;;;;-146.03;100.00;60875.16;5007820;28;46527;-78
2022/03/16 02:06:49;;;;;;;;;15.00;15.00;;;;;-146.03;100.00;60875.16;5009612;28;45725;-78
2022/03/16 02:09:14;;;;;;;;;17.00;14.75;;;;;-146.03;100.00;60875.16;5005974;28;45392;-79
2022/03/16 02:11:40;;;;;;;;;16.25;16.00;;;;;-146.03;100.00;60875.16;5007759;28;45303;-78
2022/03/16 02:14:06;;;;;;;;;18.25;17.25;;;;;-146.03;100.00;60875.16;5007486;28;45501;-78
2022/03/16 02:16:34;;;;;;;;;14.75;14.75;;;;;-146.03;100.00;60875.16;5004449;28;45484;-78
2022/03/16 02:18:59;;;;;;;;;19.00;16.50;;;;;-146.03;100.00;60875.16;5009668;28;45730;-79
2022/03/16 02:21:28;;;;;;;;;20.25;16.00;;;;;-146.03;100.00;60875.16;5011549;28;45517;-78
2022/03/16 02:23:53;;;;;;;;;16.50;15.75;;;;;-146.03;100.00;60875.16;5004515;28;46968;-78
2022/03/16 02:26:24;;;;;;;;;17.50;17.50;;;;;-146.03;100.00;60875.16;5009298;28;45590;-78
2022/03/16 02:28:50;;;;;;;;;19.75;16.75;;;;;-146.03;100.00;60875.16;5005525;28;45982;-78
2022/03/16 02:31:17;;;;;;;;;21.50;16.25;;;;;-146.03;100.00;60875.16;4994974;28;47115;-78
2022/03/16 02:33:42;;;;;;;;;17.25;17.25;;;;;-146.03;100.00;60875.16;5004589;28;46067;-77
2022/03/16 02:36:09;;;;;;;;;15.00;15.00;;;;;-146.03;100.00;60875.16;5009343;28;45518;-77
2022/03/16 02:38:35;;;;;;;;;16.00;16.00;;;;;-146.03;100.00;60875.16;5009762;28;45902;-76
2022/03/16 02:41:00;;;;;;;;;19.25;18.00;;;;;-146.03;100.00;60875.16;5013197;28;45436;-77
2022/03/16 02:43:27;;;;;;;;;18.50;17.25;;;;;-146.03;100.00;60875.16;5009239;28;46157;-78
2022/03/16 02:45:53;;;;;;;;;18.00;17.25;;;;;-146.03;100.00;60875.16;5008840;28;45509;-78
2022/03/16 02:48:18;;;;;;;;;16.75;16.25;;;;;-146.03;100.00;60875.16;5012106;28;45683;-77
2022/03/16 02:50:44;;;;;;;;;20.00;18.75;;;;;-146.03;100.00;60875.16;5009869;28;45292;-78
2022/03/16 02:53:09;;;;;;;;;18.75;17.50;;;;;-146.03;100.00;60875.16;5007115;28;54169;-77
2022/03/16 02:55:34;;;;;;;;;18.75;14.50;;;;;-146.03;100.00;60875.16;5004963;28;45466;-77
2022/03/16 02:58:00;;;;;;;;;17.50;17.25;;;;;-146.03;100.00;60875.16;5013352;28;45469;-77
2022/03/16 03:00:26;;;;;;;;;24.75;20.75;;;;;-146.03;100.00;60875.16;5011919;28;45513;-78
2022/03/16 03:02:53;;;;;;;;;19.25;18.00;;;;;-146.03;100.00;60875.16;5005562;28;46057;-78
2022/03/16 03:05:18;;;;;;;;;19.50;18.50;;;;;-146.03;100.00;60875.16;5007382;28;45445;-78
2022/03/16 03:07:44;;;;;;;;;17.00;15.50;;;;;-146.03;100.00;60875.16;5012984;28;45519;-78
2022/03/16 03:10:09;;;;;;;;;20.25;18.25;;;;;-146.03;100.00;60875.16;5010388;28;61822;-78
2022/03/16 03:12:35;;;;;;;;;20.75;18.00;;;;;-146.03;100.00;60875.16;5007241;28;47625;-77
2022/03/16 03:15:03;;;;;;;;;25.25;21.25;;;;;-146.03;100.00;60875.16;5006977;28;45547;-78
2022/03/16 03:17:28;;;;;;;;;21.25;19.50;;;;;-146.03;100.00;60875.16;5005557;28;45715;-78
2022/03/16 03:19:53;;;;;;;;;19.50;19.00;;;;;-146.03;100.00;60875.16;5009613;28;45516;-78
2022/03/16 03:22:19;;;;;;;;;17.00;17.00;;;;;-146.03;100.00;60875.16;5009744;28;46235;-78
2022/03/16 03:24:44;;;;;;;;;22.00;19.00;;;;;-146.03;100.00;60875.16;5007123;28;45536;-78
2022/03/16 03:27:10;;;;;;;;;23.25;19.25;;;;;-146.03;100.00;60875.16;5005729;28;45378;-78
2022/03/16 03:29:36;;;;;;;;;19.25;17.75;;;;;-146.03;100.00;60875.16;4991450;28;45540;-78
2022/03/16 03:32:01;;;;;;;;;22.25;21.75;;;;;-146.03;100.00;60875.16;5012650;28;45363;-78
2022/03/16 03:34:26;;;;;;;;;21.25;18.25;;;;;-146.03;100.00;60875.16;5010817;28;45803;-78
2022/03/16 03:36:53;;;;;;;;;21.00;18.00;;;;;-146.03;100.00;60875.16;5010021;28;45538;-78
2022/03/16 03:39:18;;;;;;;;;23.25;21.00;;;;;-146.03;100.00;60875.16;5010300;28;46092;-77
2022/03/16 03:41:43;;;;;;;;;25.50;23.25;;;;;-146.03;100.00;60875.16;5008079;28;45453;-77
2022/03/16 03:44:09;;;;;;;;;21.25;18.25;;;;;-146.03;100.00;60875.16;5007638;28;45409;-77
2022/03/16 03:46:34;;;;;;;;;20.75;18.50;;;;;-146.03;100.00;60875.16;5014721;28;48656;-77
2022/03/16 03:48:59;;;;;;;;;24.75;16.75;;;;;-146.03;100.00;60875.16;4994612;28;45558;-77
2022/03/16 03:51:25;;;;;;;;;22.25;18.75;;;;;-146.03;100.00;60875.16;5012180;28;57193;-77
2022/03/16 03:53:50;;;;;;;;;28.00;24.50;;;;;-146.03;100.00;60875.16;5010818;28;46894;-77
2022/03/16 03:56:15;;;;;;;;;23.50;22.00;;;;;-146.03;100.00;60875.16;5010315;28;45497;-78
2022/03/16 03:58:41;;;;;;;;;23.00;20.75;;;;;-146.03;100.00;60875.16;5012671;28;46029;-78
2022/03/16 04:01:06;;;;;;;;;23.25;20.00;;;;;-146.03;100.00;60875.16;4998388;28;48107;-77
2022/03/16 04:03:32;;;;;;;;;20.50;18.00;;;;;-146.03;100.00;60875.16;5013471;28;46047;-77
2022/03/16 04:05:59;;;;;;;;;16.25;14.00;;;;;-146.03;100.00;60875.16;5013580;28;46261;-78
2022/03/16 04:08:25;;;;;;;;;24.75;18.75;;;;;-146.03;100.00;60875.16;5013085;28;45474;-77
2022/03/16 04:10:50;;;;;;;;;23.75;21.25;;;;;-146.03;100.00;60875.16;5015318;28;45477;-77
2022/03/16 04:13:16;;;;;;;;;21.00;21.00;;;;;-146.03;100.00;60875.16;5011426;28;45593;-77
2022/03/16 04:15:41;;;;;;;;;23.75;23.50;;;;;-146.03;100.00;60875.16;5011312;28;45310;-76
2022/03/16 04:18:06;;;;;;;;;23.50;22.00;;;;;-146.03;100.00;60875.16;5008192;28;45524;-76
2022/03/16 04:20:32;;;;;;;;;22.50;22.00;;;;;-146.03;100.00;60875.16;5014208;28;49784;-77
2022/03/16 04:22:57;;;;;;;;;25.50;22.75;;;;;-146.03;100.00;60875.16;5009991;28;45450;-78
2022/03/16 04:25:22;;;;;;;;;23.75;22.00;;;;;-146.03;100.00;60875.16;5014839;28;48549;-78
2022/03/16 04:27:48;;;;;;;;;26.50;23.00;;;;;-146.03;100.00;60875.16;5013872;28;46004;-78
2022/03/16 04:30:13;;;;;;;;;21.50;19.75;;;;;-146.03;100.00;60875.16;5010764;28;45469;-78
2022/03/16 04:32:38;;;;;;;;;25.25;23.00;;;;;-146.03;100.00;60875.16;5003149;28;45588;-78
2022/03/16 04:35:04;;;;;;;;;21.25;21.00;;;;;-146.03;100.00;60875.16;5012871;28;45495;-77
2022/03/16 04:37:30;;;;;;;;;24.00;23.25;;;;;-146.03;100.00;60875.16;5008988;28;45431;-77
2022/03/16 04:39:55;;;;;;;;;22.00;17.75;;;;;-146.03;100.00;60875.16;5014942;28;46216;-78
2022/03/16 04:42:20;;;;;;;;;23.50;23.50;;;;;-146.03;100.00;60875.16;5012852;28;45440;-78
2022/03/16 04:44:46;;;;;;;;;27.75;22.75;;;;;-146.03;100.00;60875.16;5008727;28;48805;-78
2022/03/16 04:47:11;;;;;;;;;26.75;24.25;;;;;-146.03;100.00;60875.16;5013193;28;45300;-78
2022/03/16 04:49:36;;;;;;;;;27.25;25.25;;;;;-146.03;100.00;60875.16;5014137;28;55786;-77
2022/03/16 04:52:02;;;;;;;;;25.00;24.00;;;;;-146.03;100.00;60875.16;5012354;28;58781;-77
2022/03/16 04:54:28;;;;;;;;;28.75;24.50;;;;;-146.03;100.00;60875.16;5009186;28;45513;-78
2022/03/16 04:56:54;;;;;;;;;25.75;20.25;;;;;-146.03;100.00;60875.16;5005015;28;45543;-77
2022/03/16 04:59:19;;;;;;;;;26.75;22.75;;;;;-146.03;100.00;60875.16;5007883;28;46044;-78
2022/03/16 05:01:45;;;;;;;;;22.25;22.25;;;;;-146.03;100.00;60875.16;5008216;28;47992;-79
2022/03/16 05:04:10;;;;;;;;;25.50;22.00;;;;;-146.03;100.00;60875.16;5011184;28;45775;-79
2022/03/16 05:06:35;;;;;;;;;18.25;17.00;;;;;-146.03;100.00;60875.16;5015952;28;45351;-79
2022/03/16 05:09:01;;;;;;;;;28.50;26.50;;;;;-146.03;100.00;60875.16;5015955;28;47900;-79
2022/03/16 05:11:26;;;;;;;;;22.50;21.00;;;;;-146.03;100.00;60875.16;5015660;28;45474;-78
2022/03/16 05:13:52;;;;;;;;;23.25;23.25;;;;;-146.03;100.00;60875.16;5016378;28;55610;-79
2022/03/16 05:16:17;;;;;;;;;25.75;21.75;;;;;-146.03;100.00;60875.16;4999987;28;45671;-78
2022/03/16 05:18:45;;;;;;;;;26.25;23.75;;;;;-146.03;100.00;60875.16;5012531;28;46324;-76
2022/03/16 05:21:11;;;;;;;;;22.25;20.75;;;;;-146.03;100.00;60875.16;5004331;28;45398;-78
2022/03/16 05:23:37;;;;;;;;;23.75;20.50;;;;;-146.03;100.00;60875.16;5000854;28;45426;-78
2022/03/16 05:26:03;;;;;;;;;25.75;24.25;;;;;-146.03;100.00;60875.16;5002444;28;45319;-78
2022/03/16 05:28:28;;;;;;;;;25.00;22.25;;;;;-146.03;100.00;60875.16;5005075;28;45431;-79
2022/03/16 05:30:54;;;;;;;;;27.25;25.75;;;;;-146.03;100.00;60875.16;5005041;28;45737;-78
2022/03/16 05:33:19;;;;;;;;;19.50;19.00;;;;;-146.03;100.00;60875.16;5005483;28;45509;-79
2022/03/16 05:35:45;;;;;;;;;26.75;25.50;;;;;-146.03;100.00;60875.16;5016671;28;45394;-79
2022/03/16 05:38:13;;;;;;;;;23.25;22.25;;;;;-146.03;100.00;60875.16;5001396;28;45423;-79
2022/03/16 05:40:40;;;;;;;;;20.50;20.00;;;;;-146.03;100.00;60875.16;5015910;28;45448;-78
2022/03/16 05:43:06;;;;;;;;;29.75;26.00;;;;;-146.03;100.00;60875.16;5016371;28;45312;-79
2022/03/16 05:45:32;;;;;;;;;23.00;20.75;;;;;-146.03;100.00;60875.16;5015923;28;45453;-78
2022/03/16 05:47:57;;;;;;;;;23.75;20.25;;;;;-146.03;100.00;60875.16;5015993;28;45506;-79
2022/03/16 05:50:24;;;;;;;;;26.25;21.50;;;;;-146.03;100.00;60875.16;5016366;28;45393;-78
2022/03/16 05:52:50;;;;;;;;;24.25;24.25;;;;;-146.03;100.00;60875.16;5016048;28;45466;-78
2022/03/16 05:55:15;;;;;;;;;21.50;20.75;;;;;-146.03;100.00;60875.16;5015236;28;45518;-78
2022/03/16 05:57:44;;;;;;;;;23.00;21.75;;;;;-146.03;100.00;60875.16;5015272;28;45470;-79
2022/03/16 06:00:14;;;;;;;;;26.75;22.75;;;;;-146.03;100.00;60875.16;5015456;28;45430;-79
2022/03/16 06:02:40;;;;;;;;;22.00;22.00;;;;;-146.03;100.00;60875.16;5015449;28;45883;-79
2022/03/16 06:05:06;;;;;;;;;26.00;23.50;;;;;-146.03;100.00;60875.16;5015920;28;45385;-79
2022/03/16 06:07:31;;;;;;;;;28.25;25.00;;;;;-146.03;100.00;60875.16;4996842;28;47098;-78
2022/03/16 06:09:57;;;;;;;;;29.75;26.75;;;;;-146.03;100.00;60875.16;5014671;28;45341;-78
2022/03/16 06:12:22;;;;;;;;;28.25;26.25;;;;;-146.03;100.00;60875.16;5015193;28;45381;-76
2022/03/16 06:14:48;;;;;;;;;24.25;23.50;;;;;-146.03;100.00;60875.16;5014882;28;51558;-79
2022/03/16 06:17:13;;;;;;;;;27.25;27.25;;;;;-146.03;100.00;60875.16;5015566;28;45729;-80
2022/03/16 06:19:38;;;;;;;;;28.75;25.00;;;;;-146.03;100.00;60875.16;5014979;28;45649;-78
2022/03/16 06:22:04;;;;;;;;;25.00;22.50;;;;;-146.03;100.00;60875.16;5014538;28;45454;-79
2022/03/16 06:24:29;;;;;;;;;28.00;25.50;;;;;-146.03;100.00;60875.16;5014730;28;45501;-78
2022/03/16 06:26:55;;;;;;;;;27.00;23.50;;;;;-146.03;100.00;60875.16;5014910;28;45969;-78
2022/03/16 06:29:20;;;;;;;;;25.00;23.25;;;;;-146.03;100.00;60875.16;5014965;28;45577;-78
2022/03/16 06:31:45;;;;;;;;;26.00;24.00;;;;;-146.03;100.00;60875.16;5014642;28;45527;-79
2022/03/16 06:34:11;;;;;;;;;27.75;25.75;;;;;-146.03;100.00;60875.16;5014570;28;45584;-79
2022/03/16 06:36:36;;;;;;;;;28.25;24.00;;;;;-146.03;100.00;60875.16;5012291;28;52490;-78
2022/03/16 06:39:02;;;;;;;;;28.00;25.00;;;;;-146.03;100.00;60875.16;5013014;28;53967;-78
2022/03/16 06:41:27;;;;;;;;;23.50;22.25;;;;;-146.03;100.00;60875.16;5014817;28;45461;-79
2022/03/16 06:43:52;;;;;;;;;27.00;25.00;;;;;-146.03;100.00;60875.16;5015652;28;45346;-79
2022/03/16 06:46:18;;;;;;;;;28.25;25.00;;;;;-146.03;100.00;60875.16;4994690;28;46227;-80
2022/03/16 06:48:43;;;;;;;;;22.75;22.75;;;;;-146.03;100.00;60875.16;5014489;28;46157;-79
2022/03/16 06:51:09;;;;;;;;;29.75;25.75;;;;;-146.03;100.00;60875.16;5014652;28;45312;-80
2022/03/16 06:53:35;;;;;;;;;34.25;31.25;;;;;-146.03;100.00;60875.16;5014960;28;45544;-79
2022/03/16 06:56:03;;;;;;;;;29.75;25.50;;;;;-146.03;100.00;60875.16;5014909;28;46162;-80
2022/03/16 06:58:28;;;;;;;;;24.00;23.25;;;;;-146.03;100.00;60875.16;5013760;28;45637;-78
2022/03/16 07:00:54;;;;;;;;;35.50;29.75;;;;;-146.03;100.00;60875.16;5013961;28;45490;-78
2022/03/16 07:03:19;;;;;;;;;27.50;25.75;;;;;-146.03;100.00;60875.16;5013148;28;45417;-78
2022/03/16 07:05:45;;;;;;;;;28.75;24.25;;;;;-146.03;100.00;60875.16;5014084;28;49248;-78
2022/03/16 07:08:12;;;;;;;;;26.25;24.50;;;;;-146.03;100.00;60875.16;5014092;28;45666;-78
2022/03/16 07:10:41;;;;;;;;;33.00;28.75;;;;;-146.03;100.00;60875.16;5014502;28;45441;-78
2022/03/16 07:13:11;;;;;;;;;26.50;26.50;;;;;-146.03;100.00;60875.16;5013076;28;45470;-78
2022/03/16 07:15:37;;;;;;;;;30.75;29.25;;;;;-146.03;100.00;60875.16;5004290;28;47594;-79
2022/03/16 07:18:03;;;;;;;;;26.50;24.75;;;;;-146.03;100.00;60875.16;5013793;28;45482;-78
2022/03/16 07:20:32;;;;;;;;;26.25;25.75;;;;;-146.03;100.00;60875.16;5014444;28;46577;-79
2022/03/16 07:23:09;;;;;;;;;32.25;27.75;;;;;-146.03;100.00;60875.16;5014549;28;45552;-79
2022/03/16 07:25:40;;;;;;;;;27.75;24.75;;;;;-146.03;100.00;60875.16;5013450;28;47072;-78
2022/03/16 07:28:07;;;;;;;;;34.50;30.25;;;;;-146.03;100.00;60875.16;4993843;28;45572;-79
2022/03/16 07:30:33;;;;;;;;;31.75;27.75;;;;;-146.03;100.00;60875.16;4994917;28;45396;-78
2022/03/16 07:32:58;;;;;;;;;29.00;26.50;;;;;-146.03;100.00;60875.16;5013057;28;46054;-79
2022/03/16 07:35:26;;;;;;;;;27.75;27.50;;;;;-146.03;100.00;60875.16;5013856;28;46327;-79
2022/03/16 07:37:53;;;;;;;;;26.75;25.00;;;;;-146.03;100.00;60875.16;5014850;28;45317;-79
2022/03/16 07:40:18;;;;;;;;;29.50;27.50;;;;;-146.03;100.00;60875.16;5012797;28;45437;-79
2022/03/16 07:42:48;;;;;;;;;30.00;29.75;;;;;-146.03;100.00;60875.16;5011785;28;45303;-79
2022/03/16 07:45:15;;;;;;;;;28.50;26.00;;;;;-146.03;100.00;60875.16;4993229;28;45497;-79
2022/03/16 07:47:41;;;;;;;;;26.25;25.50;;;;;-146.03;100.00;60875.16;5013555;28;45311;-79
2022/03/16 07:50:09;;;;;;;;;31.50;30.50;;;;;-146.03;100.00;60875.16;5013285;28;45516;-79
2022/03/16 07:52:34;;;;;;;;;32.50;27.00;;;;;-146.03;100.00;60875.16;5012566;28;45466;-80
2022/03/16 07:54:59;;;;;;;;;29.00;26.75;;;;;-146.03;100.00;60875.16;5007911;28;47829;-79
2022/03/16 07:57:25;;;;;;;;;30.50;29.25;;;;;-146.03;100.00;60875.16;5009285;28;45775;-79
2022/03/16 07:59:51;;;;;;;;;23.50;20.00;;;;;-146.03;100.00;60875.16;5010847;28;45777;-79
2022/03/16 08:02:16;;;;;;;;;36.00;30.75;;;;;-146.03;100.00;60875.16;5011206;28;46879;-78
2022/03/16 08:04:42;;;;;;;;;33.75;26.75;;;;;-146.03;100.00;60875.16;5010139;28;46313;-78
2022/03/16 08:07:09;;;;;;;;;34.75;29.50;;;;;-146.03;100.00;60875.16;5011713;28;45892;-79
2022/03/16 08:09:35;;;;;;;;;33.25;29.50;;;;;-146.03;100.00;60875.16;5013398;28;45633;-78
2022/03/16 08:12:00;;;;;;;;;32.25;30.75;;;;;-146.03;100.00;60875.16;5008917;28;47025;-79
2022/03/16 08:14:25;;;;;;;;;33.00;31.25;;;;;-146.03;100.00;60875.16;5011196;28;45874;-79
2022/03/16 08:16:51;;;;;;;;;31.75;29.75;;;;;-146.03;100.00;60875.16;5008942;28;45922;-78
2022/03/16 08:19:16;;;;;;;;;31.25;30.75;;;;;-146.03;100.00;60875.16;5012534;28;45468;-78
2022/03/16 08:21:42;;;;;;;;;32.00;31.00;;;;;-146.03;100.00;60875.16;5015060;28;45459;-79
2022/03/16 08:24:07;;;;;;;;;34.50;29.25;;;;;-146.03;100.00;60875.16;5010582;28;46043;-79
2022/03/16 08:26:32;;;;;;;;;23.00;21.50;;;;;-146.03;100.00;60875.16;5013263;28;45306;-78
2022/03/16 08:28:58;;;;;;;;;28.00;27.00;;;;;-146.03;100.00;60875.16;5010322;28;45789;-78
2022/03/16 08:31:23;;;;;;;;;31.00;26.50;;;;;-146.03;100.00;60875.16;5016934;28;45600;-78
2022/03/16 08:33:48;;;;;;;;;25.00;25.00;;;;;-146.03;100.00;60875.16;5015645;28;45937;-78
2022/03/16 08:36:14;;;;;;;;;31.00;27.75;;;;;-146.03;100.00;60875.16;5016320;28;45319;-80
2022/03/16 08:38:41;;;;;;;;;29.25;28.00;;;;;-146.03;100.00;60875.16;4996902;28;45599;-79
2022/03/16 08:41:07;;;;;;;;;37.00;31.50;;;;;-146.03;100.00;60875.16;5017020;28;45431;-79
2022/03/16 08:43:35;;;;;;;;;28.25;25.75;;;;;-146.03;100.00;60875.16;5015818;28;46006;-79
2022/03/16 08:46:01;;;;;;;;;32.00;31.50;;;;;-146.03;100.00;60875.16;5015676;28;45367;-79
2022/03/16 08:48:27;;;;;;;;;34.75;31.25;;;;;-146.03;100.00;60875.16;5017054;28;45990;-79
2022/03/16 08:50:52;;;;;;;;;29.50;28.50;;;;;-146.03;100.00;60875.16;4996280;28;45599;-79
2022/03/16 08:53:18;;;;;;;;;31.50;28.50;;;;;-146.03;100.00;60875.16;5015546;28;45449;-79
2022/03/16 08:55:43;;;;;;;;;30.50;28.50;;;;;-146.03;100.00;60875.16;5015895;28;45775;-79
2022/03/16 08:58:08;;;;;;;;;31.75;30.00;;;;;-146.03;100.00;60875.16;5014377;28;45807;-79
2022/03/16 09:00:34;;;;;;;;;28.00;24.00;;;;;-146.03;100.00;60875.16;5015271;28;45474;-79
2022/03/16 09:02:59;;;;;;;;;32.75;31.00;;;;;-146.03;100.00;60875.16;5013696;28;45979;-79
2022/03/16 09:05:25;;;;;;;;;32.00;30.00;;;;;-146.03;100.00;60875.16;4998119;28;45432;-79
2022/03/16 09:07:51;;;;;;;;;35.00;32.75;;;;;-146.03;100.00;60875.16;5015670;28;45422;-77
2022/03/16 09:10:16;;;;;;;;;31.50;25.75;;;;;-146.03;100.00;60875.16;5013534;28;48241;-77
2022/03/16 09:12:42;;;;;;;;;29.50;26.00;;;;;-146.03;100.00;60875.16;5014025;28;46238;-77
2022/03/16 09:15:08;;;;;;;;;30.50;27.00;;;;;-146.03;100.00;60875.16;5013155;28;45504;-76
2022/03/16 09:17:34;;;;;;;;;32.25;27.50;;;;;-146.03;100.00;60875.16;5014994;28;45520;-77
2022/03/16 09:20:00;;;;;;;;;25.25;24.75;;;;;-146.03;100.00;60875.16;5014058;28;45532;-77
2022/03/16 09:22:26;;;;;;;;;25.00;22.75;;;;;-146.03;100.00;60875.16;5014708;28;45835;-77
2022/03/16 09:24:51;;;;;;;;;31.00;27.00;;;;;-146.03;100.00;60875.16;5013647;28;45445;-77
2022/03/16 09:27:17;;;;;;;;;27.50;26.50;;;;;-146.03;100.00;60875.16;5015141;28;45596;-77
2022/03/16 09:29:46;;;;;;;;;28.50;27.75;;;;;-146.03;100.00;60875.16;5014933;28;45776;-77
2022/03/16 09:32:12;;;;;;;;;31.50;30.25;;;;;-146.03;100.00;60875.16;4995246;28;47421;-76
2022/03/16 09:34:38;;;;;;;;;29.75;26.25;;;;;-146.03;100.00;60875.16;5014743;28;45501;-77
2022/03/16 09:37:04;;;;;;;;;29.75;26.50;;;;;-146.03;100.00;60875.16;5016841;28;45519;-76
2022/03/16 09:39:30;;;;;;;;;31.00;29.25;;;;;-146.03;100.00;60875.16;5014810;28;45515;-76
2022/03/16 09:41:56;;;;;;;;;27.25;25.75;;;;;-146.03;100.00;60875.16;5014293;28;45407;-77
2022/03/16 09:44:23;;;;;;;;;29.25;28.00;;;;;-146.03;100.00;60875.16;5015844;28;45256;-76
2022/03/16 09:46:54;;;;;;;;;32.75;30.25;;;;;-146.03;100.00;60875.16;5015017;28;45542;-76
2022/03/16 09:49:19;;;;;;;;;31.25;28.75;;;;;-146.03;100.00;60875.16;5014982;28;45512;-77
2022/03/16 09:51:44;;;;;;;;;27.75;25.25;;;;;-146.03;100.00;60875.16;5014395;28;45619;-76
2022/03/16 09:54:10;;;;;;;;;29.75;27.50;;;;;-146.03;100.00;60875.16;4996786;28;45481;-77
2022/03/16 09:56:36;;;;;;;;;32.75;31.50;;;;;-146.03;100.00;60875.16;5015157;28;45383;-77
2022/03/16 09:59:02;;;;;;;;;34.75;30.25;;;;;-146.03;100.00;60875.16;5015639;28;45383;-76
2022/03/16 10:01:28;;;;;;;;;23.75;21.25;;;;;-146.03;100.00;60875.16;5013785;28;45497;-77
2022/03/16 10:03:59;;;;;;;;;33.00;27.00;;;;;-146.03;100.00;60875.16;5014522;28;45440;-75
2022/03/16 10:06:25;;;;;;;;;35.50;29.50;;;;;-146.03;100.00;60875.16;5014762;28;45450;-74
2022/03/16 10:14:18;;;;;;;;;31.50;29.00;;;;;-146.03;100.00;60875.16;5014958;28;45408;-77
2022/03/16 10:17:49;;;;;;;;;34.00;29.50;;;;;-146.03;100.00;60875.16;5014681;28;45355;-76
2022/03/16 10:19:50;;;;;;;;;28.75;26.25;;;;;-146.03;100.00;60875.16;5000815;28;46246;-77
2022/03/16 10:22:26;;;;;;;;;33.50;27.25;;;;;-146.03;100.00;60875.16;4993847;28;47651;-76
2022/03/16 10:25:07;;;;;;;;;27.75;26.75;;;;;-146.03;100.00;60875.16;5015223;28;45326;-77
2022/03/16 10:27:37;;;;;;;;;29.50;29.50;;;;;-146.03;100.00;60875.16;5015311;28;45375;-76
2022/03/16 10:30:05;;;;;;;;;29.00;27.25;;;;;-146.03;100.00;60875.16;5013628;28;45489;-76
2022/03/16 10:32:31;;;;;;;;;27.00;25.25;;;;;-146.03;100.00;60875.16;5013860;28;45522;-77
2022/03/16 10:34:57;;;;;;;;;33.00;26.75;;;;;-146.03;100.00;60875.16;5014665;28;45316;-77
2022/03/16 10:37:24;;;;;;;;;27.50;24.25;;;;;-146.03;100.00;60875.16;5013955;28;45410;-77
2022/03/16 10:39:51;;;;;;;;;32.00;27.00;;;;;-146.03;100.00;60875.16;5013694;28;45489;-77
2022/03/16 10:47:56;;;;;;;;;30.00;29.75;;;;;-146.03;100.00;60875.16;5014255;28;45414;-77
2022/03/16 10:50:23;;;;;;;;;28.25;27.50;;;;;-146.03;100.00;60875.16;5013801;28;45617;-76
2022/03/16 10:52:50;;;;;;;;;27.25;26.00;;;;;-146.03;100.00;60875.16;5013570;28;46159;-77
2022/03/16 10:55:19;;;;;;;;;28.25;27.75;;;;;-146.03;100.00;60875.16;5012621;28;45461;-77
2022/03/16 10:57:45;;;;;;;;;31.50;28.75;;;;;-146.03;100.00;60875.16;5014071;28;45438;-77
2022/03/16 11:00:12;;;;;;;;;34.25;29.25;;;;;-146.03;100.00;60875.16;4993830;28;45625;-77